createdAt,value
2023-08-12T00:06:31.821Z,0.00
2023-08-12T00:17:33.607Z,0.00
2023-08-12T00:28:35.321Z,0.00
2023-08-12T00:35:56.980Z,1.96
2023-08-12T00:43:18.713Z,2.78
2023-08-12T00:47:00.367Z,2.42
2023-08-12T00:50:41.906Z,2.42
2023-08-12T01:01:43.668Z,0.00
2023-08-12T01:12:45.464Z,0.00
2023-08-12T01:23:47.208Z,0.00
2023-08-12T01:34:48.980Z,0.00
2023-08-12T01:45:50.728Z,0.00
2023-08-12T01:56:52.498Z,0.00
2023-08-12T02:07:54.248Z,0.00
2023-08-12T02:18:56.027Z,0.00
2023-08-12T02:26:17.718Z,2.61
2023-08-12T02:29:59.284Z,1.70
2023-08-12T02:41:01.078Z,0.00
2023-08-12T02:52:02.833Z,0.00
2023-08-12T03:03:04.753Z,0.00
2023-08-12T03:14:06.384Z,0.00
2023-08-12T03:25:08.117Z,0.00
2023-08-12T03:36:09.820Z,0.00
2023-08-12T03:47:12.136Z,0.00
2023-08-12T03:50:53.210Z,2.82
2023-08-12T03:54:34.785Z,2.09
2023-08-12T04:05:36.609Z,0.00
2023-08-12T04:16:38.362Z,0.00
2023-08-12T04:27:40.080Z,0.00
2023-08-12T04:38:41.805Z,0.00
2023-08-12T04:49:43.598Z,0.00
2023-08-12T05:00:45.332Z,0.00
2023-08-12T05:11:47.109Z,0.00
2023-08-12T05:22:48.849Z,0.00
2023-08-12T05:33:50.626Z,0.00
2023-08-12T05:44:52.321Z,2.99
2023-08-12T05:55:54.083Z,0.00
2023-08-12T06:06:55.842Z,2.32
2023-08-12T06:10:38.936Z,2.22
2023-08-12T06:14:19.119Z,4.61
2023-08-12T06:18:00.787Z,3.13
2023-08-12T06:21:42.371Z,2.68
2023-08-12T06:25:23.987Z,2.09
2023-08-12T06:29:06.309Z,2.86
2023-08-12T06:32:47.207Z,2.51
2023-08-12T06:36:28.739Z,1.70
2023-08-12T06:40:10.335Z,3.25
2023-08-12T06:43:51.931Z,4.54
2023-08-12T06:47:33.526Z,2.87
2023-08-12T06:51:15.127Z,3.39
2023-08-12T06:58:36.795Z,3.25
2023-08-12T07:02:18.402Z,2.96
2023-08-12T07:06:00.038Z,2.87
2023-08-12T07:09:41.660Z,2.82
2023-08-12T07:13:23.247Z,2.98
2023-08-12T07:17:04.825Z,3.31
2023-08-12T07:24:26.534Z,6.15
2023-08-12T07:28:08.143Z,1.70
2023-08-12T07:35:29.928Z,2.56
2023-08-12T07:39:11.523Z,2.35
2023-08-12T07:50:13.312Z,0.00
2023-08-12T08:01:15.049Z,0.00
2023-08-12T08:12:16.816Z,0.00
2023-08-12T08:15:58.385Z,2.32
2023-08-12T08:19:39.974Z,2.09
2023-08-12T08:30:41.788Z,0.00
2023-08-12T08:41:43.496Z,0.00
2023-08-12T08:45:25.135Z,2.83
2023-08-12T08:49:06.939Z,3.62
2023-08-12T08:52:48.616Z,2.85
2023-08-12T09:03:50.370Z,0.00
2023-08-12T09:07:32.067Z,2.59
2023-08-12T09:11:13.719Z,3.10
2023-08-12T09:14:55.422Z,3.39
2023-08-12T09:18:37.113Z,3.74
2023-08-12T09:22:18.832Z,3.29
2023-08-12T09:26:00.575Z,4.10
2023-08-12T09:29:42.214Z,4.42
2023-08-12T09:33:23.900Z,4.05
2023-08-12T09:37:05.530Z,2.72
2023-08-12T09:40:47.130Z,2.09
2023-08-12T09:51:48.894Z,0.00
2023-08-12T10:02:50.711Z,2.75
2023-08-12T10:06:32.390Z,3.99
2023-08-12T10:10:14.185Z,4.09
2023-08-12T10:13:55.787Z,3.71
2023-08-12T10:17:43.216Z,3.18
2023-08-12T10:21:19.141Z,3.34
2023-08-12T10:25:00.835Z,4.67
2023-08-12T10:28:42.580Z,4.74
2023-08-12T10:32:24.246Z,3.70
2023-08-12T10:36:05.923Z,3.04
2023-08-12T10:39:47.580Z,3.41
2023-08-12T10:43:29.290Z,3.38
2023-08-12T10:47:11.183Z,4.04
2023-08-12T10:50:52.831Z,3.54
2023-08-12T10:54:34.498Z,2.32
2023-08-12T10:58:16.078Z,3.06
2023-08-12T11:01:57.649Z,2.63
2023-08-12T11:09:19.452Z,3.88
2023-08-12T11:20:21.179Z,0.00
2023-08-12T11:24:02.787Z,2.48
2023-08-12T11:27:44.466Z,2.92
2023-08-12T11:31:26.186Z,3.83
2023-08-12T11:35:07.954Z,4.73
2023-08-12T11:38:49.668Z,4.21
2023-08-12T11:42:31.429Z,3.60
2023-08-12T11:46:13.252Z,3.88
2023-08-12T11:49:54.829Z,2.74
2023-08-12T11:53:36.588Z,4.16
2023-08-12T11:57:18.325Z,3.64
2023-08-12T12:01:00.048Z,4.27
2023-08-12T12:04:41.885Z,4.84
2023-08-12T12:08:23.655Z,5.46
2023-08-12T12:12:05.471Z,4.10
2023-08-12T12:15:47.218Z,3.32
2023-08-12T12:19:28.974Z,4.26
2023-08-12T12:23:10.824Z,6.20
2023-08-12T12:26:52.596Z,5.43
2023-08-12T12:30:35.544Z,5.96
2023-08-12T12:34:17.306Z,6.23
2023-08-12T12:37:59.227Z,6.64
2023-08-12T12:41:41.072Z,5.48
2023-08-12T12:45:22.846Z,5.03
2023-08-12T12:49:04.541Z,4.69
2023-08-12T12:52:46.324Z,4.53
2023-08-12T12:56:28.110Z,4.23
2023-08-12T13:00:09.775Z,5.56
2023-08-12T13:03:51.502Z,4.14
2023-08-12T13:07:33.186Z,2.80
2023-08-12T13:11:14.869Z,2.98
2023-08-12T13:14:56.674Z,4.07
2023-08-12T13:18:38.380Z,3.10
2023-08-12T13:22:20.144Z,5.52
2023-08-12T13:26:01.913Z,3.59
2023-08-12T13:29:43.651Z,4.08
2023-08-12T13:33:25.264Z,2.86
2023-08-12T13:37:06.917Z,2.53
2023-08-12T13:40:48.590Z,4.39
2023-08-12T13:44:30.381Z,3.77
2023-08-12T13:48:12.172Z,4.17
2023-08-12T13:51:53.817Z,3.18
2023-08-12T13:55:35.613Z,4.84
2023-08-12T13:59:17.352Z,4.97
2023-08-12T14:02:59.184Z,5.06
2023-08-12T14:06:40.941Z,5.10
2023-08-12T14:10:22.704Z,5.19
2023-08-12T14:14:04.544Z,4.73
2023-08-12T14:17:46.280Z,3.41
2023-08-12T14:21:27.898Z,3.02
2023-08-12T14:25:09.683Z,4.79
2023-08-12T14:28:51.529Z,5.42
2023-08-12T14:32:33.452Z,4.76
2023-08-12T14:36:15.040Z,3.81
2023-08-12T14:39:56.692Z,3.03
2023-08-12T14:43:38.410Z,4.21
2023-08-12T14:47:20.201Z,4.90
2023-08-12T14:51:01.896Z,4.12
2023-08-12T14:54:43.542Z,3.74
2023-08-12T14:58:25.301Z,4.25
2023-08-12T15:02:06.978Z,3.13
2023-08-12T15:05:48.716Z,4.74
2023-08-12T15:09:30.656Z,3.65
2023-08-12T15:13:11.995Z,3.19
2023-08-12T15:20:33.691Z,2.42
2023-08-12T15:24:15.284Z,2.41
2023-08-12T15:31:36.980Z,3.06
2023-08-12T15:38:58.683Z,2.55
2023-08-12T15:42:40.376Z,2.32
2023-08-12T15:53:42.173Z,2.63
2023-08-12T15:57:23.734Z,3.02
2023-08-12T16:04:45.401Z,2.29
2023-08-12T16:15:47.234Z,0.00
2023-08-12T16:19:30.946Z,1.70
2023-08-12T16:30:30.478Z,0.00
2023-08-12T16:41:32.246Z,0.00
2023-08-12T16:52:33.983Z,0.00
2023-08-12T17:03:35.815Z,0.00
2023-08-12T17:14:37.499Z,0.00
2023-08-12T17:18:19.196Z,3.06
2023-08-12T17:22:00.838Z,2.09
2023-08-12T17:25:42.415Z,2.09
2023-08-12T17:36:44.152Z,0.00
2023-08-12T17:40:25.822Z,3.60
2023-08-12T17:44:07.432Z,4.88
2023-08-12T17:55:09.191Z,0.00
2023-08-12T18:06:10.990Z,0.00
2023-08-12T18:17:12.685Z,0.00
2023-08-12T18:28:14.439Z,0.00
2023-08-12T18:39:16.288Z,0.00
2023-08-12T18:50:18.257Z,0.00
2023-08-12T18:57:40.002Z,2.09
2023-08-12T19:01:21.712Z,3.56
2023-08-12T19:05:03.289Z,2.32
2023-08-12T19:08:44.910Z,2.90
2023-08-12T19:12:26.539Z,2.48
2023-08-12T19:19:48.378Z,4.80
2023-08-12T19:23:30.019Z,2.98
2023-08-12T19:30:52.069Z,3.15
2023-08-12T19:34:34.683Z,6.21
2023-08-12T19:38:16.537Z,6.63
2023-08-12T19:41:58.823Z,5.75
2023-08-12T19:45:40.859Z,4.52
2023-08-12T19:49:22.956Z,2.73
2023-08-12T19:53:04.958Z,3.75
2023-08-12T19:56:47.019Z,3.94
2023-08-12T20:00:29.059Z,2.74
2023-08-12T20:04:11.110Z,3.15
2023-08-12T20:07:53.102Z,3.20
2023-08-12T20:11:35.205Z,4.35
2023-08-12T20:15:17.362Z,4.78
2023-08-12T20:18:59.399Z,6.49
2023-08-12T20:22:50.608Z,5.94
2023-08-12T20:26:23.559Z,3.90
2023-08-12T20:30:07.185Z,3.46
2023-08-12T20:33:47.576Z,3.25
2023-08-12T20:37:29.531Z,4.77
2023-08-12T20:41:11.470Z,3.36
2023-08-12T20:44:53.529Z,3.82
2023-08-12T20:48:35.507Z,4.49
2023-08-12T20:52:17.475Z,3.17
2023-08-12T20:55:59.440Z,3.41
2023-08-12T20:59:41.269Z,2.63
2023-08-12T21:03:23.006Z,3.53
2023-08-12T21:07:04.638Z,3.86
2023-08-12T21:10:46.352Z,4.56
2023-08-12T21:14:28.096Z,4.25
2023-08-12T21:18:09.815Z,3.82
2023-08-12T21:21:51.558Z,6.39
2023-08-12T21:25:33.222Z,4.31
2023-08-12T21:29:14.954Z,4.22
2023-08-12T21:32:56.745Z,5.68
2023-08-12T21:36:38.326Z,3.80
2023-08-12T21:40:20.064Z,4.77
2023-08-12T21:44:01.665Z,3.68
2023-08-12T21:47:43.320Z,2.77
2023-08-12T21:58:45.071Z,0.00
2023-08-12T22:02:31.673Z,2.80
2023-08-12T22:09:53.340Z,2.56
2023-08-12T22:20:55.119Z,0.00
2023-08-12T22:24:36.702Z,1.90
2023-08-12T22:28:18.298Z,1.99
2023-08-12T22:35:39.989Z,1.96
2023-08-12T22:39:21.634Z,2.67
2023-08-12T22:50:23.359Z,0.00
2023-08-12T23:01:25.185Z,0.00
2023-08-12T23:12:26.882Z,0.00
2023-08-12T23:16:08.553Z,3.33
2023-08-12T23:19:50.357Z,3.30
2023-08-12T23:23:31.996Z,3.06
2023-08-12T23:27:13.635Z,3.39
2023-08-12T23:30:55.301Z,2.54
2023-08-12T23:34:36.851Z,2.90
2023-08-12T23:38:18.514Z,3.66
2023-08-12T23:42:00.088Z,2.16
2023-08-12T23:45:41.709Z,2.48
2023-08-12T23:56:43.588Z,2.67
